sensor_id;sensor_type;location;lat;lon;timestamp;pressure;altitude;pressure_sealevel;temperature;humidity
14067;BME280;7108;42.684;23.350;2023-02-11T00:01:36;97043.16;;;-1.36;100.00
14067;BME280;7108;42.684;23.350;2023-02-11T00:04:03;97042.97;;;-1.35;100.00
14067;BME280;7108;42.684;23.350;2023-02-11T00:06:31;97027.97;;;-1.46;100.00
14067;BME280;7108;42.684;23.350;2023-02-11T00:08:56;97038.47;;;-1.34;100.00
14067;BME280;7108;42.684;23.350;2023-02-11T00:11:24;97043.25;;;-1.32;100.00
14067;BME280;7108;42.684;23.350;2023-02-11T00:13:50;97044.13;;;-1.42;100.00
14067;BME280;7108;42.684;23.350;2023-02-11T00:16:18;97052.63;;;-1.40;100.00
14067;BME280;7108;42.684;23.350;2023-02-11T00:18:44;97050.94;;;-1.46;100.00
14067;BME280;7108;42.684;23.350;2023-02-11T00:21:12;97058.94;;;-1.41;100.00
14067;BME280;7108;42.684;23.350;2023-02-11T00:23:37;97044.69;;;-1.57;100.00
14067;BME280;7108;42.684;23.350;2023-02-11T00:26:03;97040.78;;;-1.66;100.00
14067;BME280;7108;42.684;23.350;2023-02-11T00:28:32;97037.94;;;-1.64;100.00
14067;BME280;7108;42.684;23.350;2023-02-11T00:30:59;97033.44;;;-1.64;100.00
14067;BME280;7108;42.684;23.350;2023-02-11T00:33:26;97037.53;;;-1.73;100.00
14067;BME280;7108;42.684;23.350;2023-02-11T00:35:54;97036.16;;;-1.75;100.00
14067;BME280;7108;42.684;23.350;2023-02-11T00:38:20;97041.53;;;-1.70;100.00
14067;BME280;7108;42.684;23.350;2023-02-11T00:40:45;97034.53;;;-1.76;100.00
14067;BME280;7108;42.684;23.350;2023-02-11T00:43:13;97044.63;;;-1.73;100.00
14067;BME280;7108;42.684;23.350;2023-02-11T00:45:38;97034.69;;;-1.83;100.00
14067;BME280;7108;42.684;23.350;2023-02-11T00:48:04;97035.34;;;-1.76;100.00
14067;BME280;7108;42.684;23.350;2023-02-11T00:50:29;97015.63;;;-1.85;100.00
14067;BME280;7108;42.684;23.350;2023-02-11T00:52:55;97019.31;;;-1.86;100.00
14067;BME280;7108;42.684;23.350;2023-02-11T00:55:20;97032.28;;;-1.84;100.00
14067;BME280;7108;42.684;23.350;2023-02-11T00:57:46;97024.50;;;-1.91;100.00
14067;BME280;7108;42.684;23.350;2023-02-11T01:00:12;97033.22;;;-1.90;100.00
14067;BME280;7108;42.684;23.350;2023-02-11T01:02:38;97040.66;;;-1.87;100.00
14067;BME280;7108;42.684;23.350;2023-02-11T01:05:04;97022.69;;;-2.01;100.00
14067;BME280;7108;42.684;23.350;2023-02-11T01:07:30;97024.16;;;-1.94;100.00
14067;BME280;7108;42.684;23.350;2023-02-11T01:09:58;97029.69;;;-1.96;100.00
14067;BME280;7108;42.684;23.350;2023-02-11T01:12:26;97018.34;;;-1.96;100.00
14067;BME280;7108;42.684;23.350;2023-02-11T01:15:00;97028.25;;;-1.87;100.00
14067;BME280;7108;42.684;23.350;2023-02-11T01:17:29;97022.78;;;-1.97;99.51
14067;BME280;7108;42.684;23.350;2023-02-11T01:20:00;97020.06;;;-2.01;100.00
14067;BME280;7108;42.684;23.350;2023-02-11T01:22:28;97028.56;;;-1.99;100.00
14067;BME280;7108;42.684;23.350;2023-02-11T01:24:54;97021.34;;;-2.04;100.00
14067;BME280;7108;42.684;23.350;2023-02-11T01:27:19;97024.44;;;-2.07;100.00
14067;BME280;7108;42.684;23.350;2023-02-11T01:29:47;97017.09;;;-2.05;100.00
14067;BME280;7108;42.684;23.350;2023-02-11T01:32:13;97023.19;;;-2.04;100.00
14067;BME280;7108;42.684;23.350;2023-02-11T01:34:41;97018.47;;;-2.02;100.00
14067;BME280;7108;42.684;23.350;2023-02-11T01:37:07;97012.53;;;-2.09;100.00
14067;BME280;7108;42.684;23.350;2023-02-11T01:39:37;97025.63;;;-2.14;100.00
14067;BME280;7108;42.684;23.350;2023-02-11T01:42:06;97015.41;;;-2.22;100.00
14067;BME280;7108;42.684;23.350;2023-02-11T01:44:39;97017.28;;;-2.23;100.00
14067;BME280;7108;42.684;23.350;2023-02-11T01:47:08;97020.28;;;-2.31;100.00
14067;BME280;7108;42.684;23.350;2023-02-11T01:49:37;97022.81;;;-2.36;100.00
14067;BME280;7108;42.684;23.350;2023-02-11T01:52:34;97021.91;;;-2.41;100.00
14067;BME280;7108;42.684;23.350;2023-02-11T01:55:12;97018.47;;;-2.42;100.00
14067;BME280;7108;42.684;23.350;2023-02-11T01:58:05;97009.66;;;-2.47;100.00
14067;BME280;7108;42.684;23.350;2023-02-11T02:00:36;97025.81;;;-2.44;100.00
14067;BME280;7108;42.684;23.350;2023-02-11T02:03:14;97023.06;;;-2.49;100.00
14067;BME280;7108;42.684;23.350;2023-02-11T02:05:48;97013.22;;;-2.53;100.00
14067;BME280;7108;42.684;23.350;2023-02-11T02:08:24;97020.19;;;-2.47;100.00
14067;BME280;7108;42.684;23.350;2023-02-11T02:10:54;97011.47;;;-2.36;100.00
14067;BME280;7108;42.684;23.350;2023-02-11T02:13:22;97014.50;;;-2.16;100.00
14067;BME280;7108;42.684;23.350;2023-02-11T02:15:55;97003.94;;;-2.16;100.00
14067;BME280;7108;42.684;23.350;2023-02-11T02:33:01;97011.06;;;-2.17;100.00
14067;BME280;7108;42.684;23.350;2023-02-11T02:40:40;97010.25;;;-2.17;100.00
14067;BME280;7108;42.684;23.350;2023-02-11T02:43:11;97000.25;;;-2.15;100.00
14067;BME280;7108;42.684;23.350;2023-02-11T02:45:38;97003.78;;;-2.10;100.00
14067;BME280;7108;42.684;23.350;2023-02-11T02:48:06;97007.06;;;-2.19;100.00
14067;BME280;7108;42.684;23.350;2023-02-11T02:50:34;97019.34;;;-2.25;100.00
14067;BME280;7108;42.684;23.350;2023-02-11T02:53:17;97012.63;;;-2.44;100.00
14067;BME280;7108;42.684;23.350;2023-02-11T02:56:02;97013.66;;;-2.45;100.00
14067;BME280;7108;42.684;23.350;2023-02-11T02:59:21;97014.91;;;-2.47;100.00
14067;BME280;7108;42.684;23.350;2023-02-11T03:01:44;97015.16;;;-2.49;100.00
14067;BME280;7108;42.684;23.350;2023-02-11T03:04:32;97027.88;;;-2.34;100.00
14067;BME280;7108;42.684;23.350;2023-02-11T03:07:21;97022.22;;;-2.26;100.00
14067;BME280;7108;42.684;23.350;2023-02-11T03:10:08;97007.59;;;-2.17;100.00
14067;BME280;7108;42.684;23.350;2023-02-11T03:12:37;97016.06;;;-2.04;100.00
14067;BME280;7108;42.684;23.350;2023-02-11T03:15:04;97018.00;;;-1.99;100.00
14067;BME280;7108;42.684;23.350;2023-02-11T03:17:33;97017.75;;;-1.98;100.00
14067;BME280;7108;42.684;23.350;2023-02-11T03:20:03;97010.06;;;-1.99;100.00
14067;BME280;7108;42.684;23.350;2023-02-11T03:22:39;97006.50;;;-1.94;100.00
14067;BME280;7108;42.684;23.350;2023-02-11T03:25:06;97018.88;;;-1.94;100.00
14067;BME280;7108;42.684;23.350;2023-02-11T03:27:40;97018.41;;;-1.91;100.00
14067;BME280;7108;42.684;23.350;2023-02-11T03:30:21;97011.38;;;-1.86;100.00
14067;BME280;7108;42.684;23.350;2023-02-11T03:32:57;97008.88;;;-1.92;100.00
14067;BME280;7108;42.684;23.350;2023-02-11T03:35:31;97010.31;;;-2.01;100.00
14067;BME280;7108;42.684;23.350;2023-02-11T03:38:01;97010.06;;;-1.99;100.00
14067;BME280;7108;42.684;23.350;2023-02-11T03:40:32;96998.75;;;-2.11;100.00
14067;BME280;7108;42.684;23.350;2023-02-11T03:43:15;97011.44;;;-1.97;100.00
14067;BME280;7108;42.684;23.350;2023-02-11T03:45:42;97011.69;;;-1.98;99.60
14067;BME280;7108;42.684;23.350;2023-02-11T03:48:15;97007.00;;;-2.08;100.00
14067;BME280;7108;42.684;23.350;2023-02-11T03:50:44;97005.78;;;-2.17;100.00
14067;BME280;7108;42.684;23.350;2023-02-11T03:53:11;97003.25;;;-2.12;100.00
14067;BME280;7108;42.684;23.350;2023-02-11T03:55:39;96997.38;;;-2.14;100.00
14067;BME280;7108;42.684;23.350;2023-02-11T03:58:06;97010.25;;;-2.17;100.00
14067;BME280;7108;42.684;23.350;2023-02-11T04:00:36;97008.94;;;-2.03;100.00
14067;BME280;7108;42.684;23.350;2023-02-11T04:03:03;97012.84;;;-2.06;100.00
14067;BME280;7108;42.684;23.350;2023-02-11T04:05:29;97010.91;;;-2.10;100.00
14067;BME280;7108;42.684;23.350;2023-02-11T04:07:58;97012.84;;;-2.06;100.00
14067;BME280;7108;42.684;23.350;2023-02-11T04:10:24;96997.97;;;-2.12;100.00
14067;BME280;7108;42.684;23.350;2023-02-11T04:12:49;97003.31;;;-2.07;100.00
14067;BME280;7108;42.684;23.350;2023-02-11T04:15:15;96999.66;;;-2.06;100.00
14067;BME280;7108;42.684;23.350;2023-02-11T04:17:40;97005.47;;;-2.04;100.00
14067;BME280;7108;42.684;23.350;2023-02-11T04:20:07;97008.22;;;-1.99;100.00
14067;BME280;7108;42.684;23.350;2023-02-11T04:22:32;97016.72;;;-1.97;100.00
14067;BME280;7108;42.684;23.350;2023-02-11T04:24:58;97012.94;;;-2.01;100.00
14067;BME280;7108;42.684;23.350;2023-02-11T04:27:23;97008.59;;;-2.07;100.00
14067;BME280;7108;42.684;23.350;2023-02-11T04:29:52;97006.13;;;-2.13;100.00
14067;BME280;7108;42.684;23.350;2023-02-11T04:32:18;97020.94;;;-2.24;100.00
14067;BME280;7108;42.684;23.350;2023-02-11T04:34:43;97004.22;;;-2.41;100.00
14067;BME280;7108;42.684;23.350;2023-02-11T04:37:11;97007.25;;;-2.49;100.00
14067;BME280;7108;42.684;23.350;2023-02-11T04:39:37;97003.56;;;-2.59;100.00
14067;BME280;7108;42.684;23.350;2023-02-11T04:42:03;97011.38;;;-2.53;100.00
14067;BME280;7108;42.684;23.350;2023-02-11T04:44:28;97007.19;;;-2.65;100.00
14067;BME280;7108;42.684;23.350;2023-02-11T04:46:54;97001.78;;;-2.70;100.00
14067;BME280;7108;42.684;23.350;2023-02-11T04:49:20;97002.25;;;-2.73;100.00
14067;BME280;7108;42.684;23.350;2023-02-11T04:51:45;97008.44;;;-2.67;100.00
14067;BME280;7108;42.684;23.350;2023-02-11T04:54:11;97011.41;;;-2.75;100.00
14067;BME280;7108;42.684;23.350;2023-02-11T04:56:38;96993.88;;;-2.81;100.00
14067;BME280;7108;42.684;23.350;2023-02-11T04:59:04;97001.78;;;-2.70;100.00
14067;BME280;7108;42.684;23.350;2023-02-11T05:01:30;97002.34;;;-2.68;100.00
14067;BME280;7108;42.684;23.350;2023-02-11T05:03:56;97001.31;;;-2.67;100.00
14067;BME280;7108;42.684;23.350;2023-02-11T05:06:22;97007.63;;;-2.68;100.00
14067;BME280;7108;42.684;23.350;2023-02-11T05:08:51;96989.88;;;-2.72;100.00
14067;BME280;7108;42.684;23.350;2023-02-11T05:11:19;96998.34;;;-2.70;100.00
14067;BME280;7108;42.684;23.350;2023-02-11T05:13:46;96992.94;;;-2.64;100.00
14067;BME280;7108;42.684;23.350;2023-02-11T05:16:11;96990.88;;;-2.62;100.00
14067;BME280;7108;42.684;23.350;2023-02-11T05:18:38;96990.38;;;-2.59;100.00
14067;BME280;7108;42.684;23.350;2023-02-11T05:21:08;96994.63;;;-2.58;100.00
14067;BME280;7108;42.684;23.350;2023-02-11T05:23:34;96999.91;;;-2.58;100.00
14067;BME280;7108;42.684;23.350;2023-02-11T05:26:01;96996.16;;;-2.73;100.00
14067;BME280;7108;42.684;23.350;2023-02-11T05:28:26;96992.88;;;-2.92;100.00
14067;BME280;7108;42.684;23.350;2023-02-11T05:30:52;96996.88;;;-2.89;100.00
14067;BME280;7108;42.684;23.350;2023-02-11T05:33:17;96993.91;;;-2.93;100.00
14067;BME280;7108;42.684;23.350;2023-02-11T05:35:43;96985.53;;;-3.01;100.00
14067;BME280;7108;42.684;23.350;2023-02-11T05:38:08;96992.66;;;-3.02;100.00
14067;BME280;7108;42.684;23.350;2023-02-11T05:40:34;96994.81;;;-2.99;100.00
14067;BME280;7108;42.684;23.350;2023-02-11T05:43:02;96988.84;;;-3.06;100.00
14067;BME280;7108;42.684;23.350;2023-02-11T05:45:27;97002.38;;;-2.91;100.00
14067;BME280;7108;42.684;23.350;2023-02-11T05:47:53;96995.84;;;-2.88;100.00
14067;BME280;7108;42.684;23.350;2023-02-11T05:50:19;97001.34;;;-2.90;100.00
14067;BME280;7108;42.684;23.350;2023-02-11T05:52:44;96996.19;;;-2.96;100.00
14067;BME280;7108;42.684;23.350;2023-02-11T05:55:10;96995.84;;;-3.00;100.00
14067;BME280;7108;42.684;23.350;2023-02-11T05:57:35;97008.00;;;-2.99;100.00
14067;BME280;7108;42.684;23.350;2023-02-11T06:00:03;97012.34;;;-2.93;100.00
14067;BME280;7108;42.684;23.350;2023-02-11T06:02:29;97008.22;;;-2.89;100.00
14067;BME280;7108;42.684;23.350;2023-02-11T06:04:57;97011.44;;;-2.98;100.00
14067;BME280;7108;42.684;23.350;2023-02-11T06:07:26;97008.44;;;-3.13;100.00
14067;BME280;7108;42.684;23.350;2023-02-11T06:09:56;97013.16;;;-3.04;100.00
14067;BME280;7108;42.684;23.350;2023-02-11T06:12:25;97014.09;;;-2.98;100.00
14067;BME280;7108;42.684;23.350;2023-02-11T06:14:50;97016.38;;;-2.90;100.00
14067;BME280;7108;42.684;23.350;2023-02-11T06:17:16;97023.91;;;-2.71;100.00
14067;BME280;7108;42.684;23.350;2023-02-11T06:19:44;97015.63;;;-2.52;100.00
14067;BME280;7108;42.684;23.350;2023-02-11T06:22:10;97012.59;;;-2.32;100.00
14067;BME280;7108;42.684;23.350;2023-02-11T06:24:35;96988.88;;;-1.88;100.00
14067;BME280;7108;42.684;23.350;2023-02-11T06:27:06;97000.78;;;-1.41;100.00
14067;BME280;7108;42.684;23.350;2023-02-11T06:29:36;97005.31;;;-1.09;94.24
14067;BME280;7108;42.684;23.350;2023-02-11T06:32:02;96987.41;;;-1.02;90.40
14067;BME280;7108;42.684;23.350;2023-02-11T06:34:27;97001.66;;;-0.87;87.85
14067;BME280;7108;42.684;23.350;2023-02-11T06:36:56;97014.25;;;-0.94;84.81
14067;BME280;7108;42.684;23.350;2023-02-11T06:39:21;97016.03;;;-0.99;85.27
14067;BME280;7108;42.684;23.350;2023-02-11T06:41:47;97000.81;;;-1.09;85.51
14067;BME280;7108;42.684;23.350;2023-02-11T06:44:15;97006.09;;;-1.09;83.89
14067;BME280;7108;42.684;23.350;2023-02-11T06:46:40;97009.59;;;-1.03;84.86
14067;BME280;7108;42.684;23.350;2023-02-11T06:49:06;97011.47;;;-1.04;85.15
14067;BME280;7108;42.684;23.350;2023-02-11T06:51:31;97016.50;;;-1.02;85.32
14067;BME280;7108;42.684;23.350;2023-02-11T06:53:57;97011.69;;;-1.05;85.15
14067;BME280;7108;42.684;23.350;2023-02-11T06:56:23;97016.50;;;-1.19;85.69
14067;BME280;7108;42.684;23.350;2023-02-11T06:58:53;97023.53;;;-1.24;86.10
14067;BME280;7108;42.684;23.350;2023-02-11T07:01:20;97021.56;;;-1.33;86.56
14067;BME280;7108;42.684;23.350;2023-02-11T07:03:46;97018.75;;;-1.43;88.67
14067;BME280;7108;42.684;23.350;2023-02-11T07:06:19;97016.56;;;-1.46;89.71
14067;BME280;7108;42.684;23.350;2023-02-11T07:08:45;97008.09;;;-1.48;90.85
14067;BME280;7108;42.684;23.350;2023-02-11T07:11:18;97008.97;;;-1.43;91.74
14067;BME280;7108;42.684;23.350;2023-02-11T07:13:51;97016.69;;;-1.25;92.22
14067;BME280;7108;42.684;23.350;2023-02-11T07:16:18;97005.38;;;-1.21;92.00
14067;BME280;7108;42.684;23.350;2023-02-11T07:18:44;97002.59;;;-1.14;91.45
14067;BME280;7108;42.684;23.350;2023-02-11T07:21:16;96997.44;;;-0.67;92.70
14067;BME280;7108;42.684;23.350;2023-02-11T07:23:42;97002.78;;;-0.45;85.60
14067;BME280;7108;42.684;23.350;2023-02-11T07:26:14;96997.44;;;-0.67;84.83
14067;BME280;7108;42.684;23.350;2023-02-11T07:28:41;96993.16;;;-0.89;84.95
14067;BME280;7108;42.684;23.350;2023-02-11T07:31:27;96996.50;;;-0.77;84.02
14067;BME280;7108;42.684;23.350;2023-02-11T07:33:58;96977.09;;;-0.45;83.97
14067;BME280;7108;42.684;23.350;2023-02-11T07:36:25;96978.69;;;-0.44;78.65
14067;BME280;7108;42.684;23.350;2023-02-11T07:38:51;96982.94;;;0.00;79.50
14067;BME280;7108;42.684;23.350;2023-02-11T07:41:19;96973.06;;;0.22;75.62
14067;BME280;7108;42.684;23.350;2023-02-11T07:43:46;96977.06;;;0.24;74.15
14067;BME280;7108;42.684;23.350;2023-02-11T07:46:23;96974.69;;;-0.46;77.47
14067;BME280;7108;42.684;23.350;2023-02-11T07:48:49;96971.91;;;-0.56;80.88
14067;BME280;7108;42.684;23.350;2023-02-11T07:51:23;96977.81;;;-0.28;81.88
14067;BME280;7108;42.684;23.350;2023-02-11T07:53:50;96972.47;;;0.15;81.28
14067;BME280;7108;42.684;23.350;2023-02-11T07:56:19;96965.72;;;0.29;78.94
14067;BME280;7108;42.684;23.350;2023-02-11T07:58:45;96979.97;;;0.49;76.05
14067;BME280;7108;42.684;23.350;2023-02-11T08:01:13;96974.41;;;0.51;73.89
14067;BME280;7108;42.684;23.350;2023-02-11T08:03:39;96965.16;;;0.53;73.56
14067;BME280;7108;42.684;23.350;2023-02-11T08:06:09;96967.09;;;0.67;75.99
14067;BME280;7108;42.684;23.350;2023-02-11T08:08:35;96955.34;;;0.85;76.11
14067;BME280;7108;42.684;23.350;2023-02-11T08:11:17;96965.97;;;0.90;71.04
14067;BME280;7108;42.684;23.350;2023-02-11T08:13:45;96972.41;;;0.36;72.09
14067;BME280;7108;42.684;23.350;2023-02-11T08:16:29;96970.06;;;-0.13;75.37
14067;BME280;7108;42.684;23.350;2023-02-11T08:18:59;96960.34;;;-0.03;78.18
14067;BME280;7108;42.684;23.350;2023-02-11T08:21:28;96956.97;;;0.02;78.01
14067;BME280;7108;42.684;23.350;2023-02-11T08:23:56;96965.31;;;-0.11;77.78
14067;BME280;7108;42.684;23.350;2023-02-11T08:26:27;96951.78;;;-0.36;77.49
14067;BME280;7108;42.684;23.350;2023-02-11T08:28:55;96955.72;;;-0.60;80.02
14067;BME280;7108;42.684;23.350;2023-02-11T08:31:44;96959.16;;;-0.80;84.97
14067;BME280;7108;42.684;23.350;2023-02-11T08:34:12;96969.41;;;-0.84;87.53
14067;BME280;7108;42.684;23.350;2023-02-11T08:36:47;96955.53;;;-0.74;88.47
14067;BME280;7108;42.684;23.350;2023-02-11T08:39:23;96962.72;;;-0.70;88.73
14067;BME280;7108;42.684;23.350;2023-02-11T08:41:51;96966.81;;;-0.63;89.69
14067;BME280;7108;42.684;23.350;2023-02-11T08:44:21;96961.41;;;-0.51;89.78
14067;BME280;7108;42.684;23.350;2023-02-11T08:46:47;96954.25;;;-0.51;88.58
14067;BME280;7108;42.684;23.350;2023-02-11T08:49:13;96957.13;;;-0.52;87.66
14067;BME280;7108;42.684;23.350;2023-02-11T08:51:39;96963.28;;;-0.47;86.50
14067;BME280;7108;42.684;23.350;2023-02-11T08:54:05;96955.59;;;-0.48;88.40
14067;BME280;7108;42.684;23.350;2023-02-11T08:56:34;96950.84;;;-0.25;90.70
14067;BME280;7108;42.684;23.350;2023-02-11T08:59:10;96952.53;;;-0.40;86.89
14067;BME280;7108;42.684;23.350;2023-02-11T09:01:42;96959.00;;;-0.53;89.94
14067;BME280;7108;42.684;23.350;2023-02-11T09:04:11;96960.41;;;-0.45;92.72
14067;BME280;7108;42.684;23.350;2023-02-11T09:06:37;96949.63;;;-0.39;91.76
14067;BME280;7108;42.684;23.350;2023-02-11T09:09:03;96950.31;;;-0.27;95.41
14067;BME280;7108;42.684;23.350;2023-02-11T09:11:32;96946.25;;;-0.08;93.18
14067;BME280;7108;42.684;23.350;2023-02-11T09:13:58;96947.94;;;-0.02;91.82
14067;BME280;7108;42.684;23.350;2023-02-11T09:16:27;96942.94;;;0.01;88.71
14067;BME280;7108;42.684;23.350;2023-02-11T09:18:54;96943.72;;;0.02;87.04
14067;BME280;7108;42.684;23.350;2023-02-11T09:21:25;96941.72;;;0.14;89.95
14067;BME280;7108;42.684;23.350;2023-02-11T09:23:51;96941.25;;;0.22;89.22
14067;BME280;7108;42.684;23.350;2023-02-11T09:26:20;96937.97;;;0.36;88.58
14067;BME280;7108;42.684;23.350;2023-02-11T09:28:46;96931.09;;;0.40;88.10
14067;BME280;7108;42.684;23.350;2023-02-11T09:31:15;96936.88;;;0.32;84.93
14067;BME280;7108;42.684;23.350;2023-02-11T09:33:43;96930.34;;;0.45;87.52
14067;BME280;7108;42.684;23.350;2023-02-11T09:36:14;96932.47;;;0.48;80.63
14067;BME280;7108;42.684;23.350;2023-02-11T09:38:40;96932.03;;;0.56;80.05
14067;BME280;7108;42.684;23.350;2023-02-11T09:43:45;96921.16;;;0.57;72.32
14067;BME280;7108;42.684;23.350;2023-02-11T09:46:14;96900.97;;;0.51;71.64
14067;BME280;7108;42.684;23.350;2023-02-11T09:48:43;96902.00;;;0.50;71.78
14067;BME280;7108;42.684;23.350;2023-02-11T09:51:20;96903.34;;;0.53;71.39
14067;BME280;7108;42.684;23.350;2023-02-11T09:53:55;96896.09;;;0.38;70.36
14067;BME280;7108;42.684;23.350;2023-02-11T09:56:22;96889.81;;;0.49;70.81
14067;BME280;7108;42.684;23.350;2023-02-11T09:58:49;96879.25;;;0.54;70.86
14067;BME280;7108;42.684;23.350;2023-02-11T10:03:53;96882.44;;;0.56;63.77
14067;BME280;7108;42.684;23.350;2023-02-11T10:12:21;96871.19;;;0.80;67.02
14067;BME280;7108;42.684;23.350;2023-02-11T10:15:05;96856.94;;;0.91;64.43
14067;BME280;7108;42.684;23.350;2023-02-11T10:20:30;96849.66;;;1.23;66.33
14067;BME280;7108;42.684;23.350;2023-02-11T10:23:00;96829.72;;;1.16;63.20
14067;BME280;7108;42.684;23.350;2023-02-11T10:25:34;96815.66;;;1.20;62.26
14067;BME280;7108;42.684;23.350;2023-02-11T10:28:17;96818.59;;;1.28;61.23
14067;BME280;7108;42.684;23.350;2023-02-11T10:31:06;96814.38;;;1.32;61.22
14067;BME280;7108;42.684;23.350;2023-02-11T10:36:15;96794.78;;;1.53;59.71
14067;BME280;7108;42.684;23.350;2023-02-11T10:38:42;96790.28;;;1.49;58.74
14067;BME280;7108;42.684;23.350;2023-02-11T10:41:17;96777.78;;;1.59;59.38
14067;BME280;7108;42.684;23.350;2023-02-11T10:43:44;96770.09;;;1.53;58.09
14067;BME280;7108;42.684;23.350;2023-02-11T10:46:16;96766.66;;;1.67;60.50
14067;BME280;7108;42.684;23.350;2023-02-11T10:48:49;96763.47;;;1.75;57.49
14067;BME280;7108;42.684;23.350;2023-02-11T10:53:47;96749.66;;;1.88;56.82
14067;BME280;7108;42.684;23.350;2023-02-11T10:56:20;96737.16;;;1.89;55.91
14067;BME280;7108;42.684;23.350;2023-02-11T10:58:55;96739.03;;;1.98;55.20
14067;BME280;7108;42.684;23.350;2023-02-11T11:01:21;96741.94;;;2.11;55.64
14067;BME280;7108;42.684;23.350;2023-02-11T11:03:53;96736.66;;;2.01;53.65
14067;BME280;7108;42.684;23.350;2023-02-11T11:06:29;96721.47;;;2.12;54.15
14067;BME280;7108;42.684;23.350;2023-02-11T11:08:55;96724.13;;;2.17;54.65
14067;BME280;7108;42.684;23.350;2023-02-11T11:11:23;96736.38;;;2.08;53.04
14067;BME280;7108;42.684;23.350;2023-02-11T11:16:28;96729.94;;;2.34;53.21
14067;BME280;7108;42.684;23.350;2023-02-11T11:19:18;96717.41;;;2.44;52.19
14067;BME280;7108;42.684;23.350;2023-02-11T11:21:46;96710.47;;;2.58;51.50
14067;BME280;7108;42.684;23.350;2023-02-11T11:24:25;96718.66;;;2.71;51.56
14067;BME280;7108;42.684;23.350;2023-02-11T11:26:57;96711.97;;;2.79;52.36
14067;BME280;7108;42.684;23.350;2023-02-11T11:29:38;96714.09;;;2.82;51.02
14067;BME280;7108;42.684;23.350;2023-02-11T11:32:19;96705.03;;;2.83;51.48
14067;BME280;7108;42.684;23.350;2023-02-11T11:34:51;96708.19;;;2.95;50.94
14067;BME280;7108;42.684;23.350;2023-02-11T11:37:29;96705.75;;;2.98;49.40
14067;BME280;7108;42.684;23.350;2023-02-11T11:40:06;96696.44;;;2.96;49.03
14067;BME280;7108;42.684;23.350;2023-02-11T11:42:34;96692.25;;;2.90;48.57
14067;BME280;7108;42.684;23.350;2023-02-11T11:45:23;96691.59;;;3.08;47.61
14067;BME280;7108;42.684;23.350;2023-02-11T11:56:08;96679.16;;;3.41;48.17
14067;BME280;7108;42.684;23.350;2023-02-11T11:58:36;96675.56;;;3.56;49.32
14067;BME280;7108;42.684;23.350;2023-02-11T12:25:38;96628.31;;;3.94;44.23
14067;BME280;7108;42.684;23.350;2023-02-11T12:31:14;96616.97;;;4.31;42.73
14067;BME280;7108;42.684;23.350;2023-02-11T12:58:42;96578.31;;;4.05;43.09
14067;BME280;7108;42.684;23.350;2023-02-11T13:01:17;96586.97;;;4.20;43.85
14067;BME280;7108;42.684;23.350;2023-02-11T13:03:49;96575.53;;;4.20;44.54
14067;BME280;7108;42.684;23.350;2023-02-11T13:06:28;96577.19;;;4.34;44.80
14067;BME280;7108;42.684;23.350;2023-02-11T13:09:03;96587.97;;;4.48;44.50
14067;BME280;7108;42.684;23.350;2023-02-11T13:11:37;96577.59;;;4.46;44.65
14067;BME280;7108;42.684;23.350;2023-02-11T13:14:11;96572.44;;;4.31;43.75
14067;BME280;7108;42.684;23.350;2023-02-11T13:16:40;96582.16;;;4.22;44.62
14067;BME280;7108;42.684;23.350;2023-02-11T13:19:40;96565.00;;;4.28;43.89
14067;BME280;7108;42.684;23.350;2023-02-11T13:22:33;96565.69;;;4.15;43.56
14067;BME280;7108;42.684;23.350;2023-02-11T13:25:24;96563.47;;;4.22;44.32
14067;BME280;7108;42.684;23.350;2023-02-11T13:30:43;96558.34;;;4.26;43.92
14067;BME280;7108;42.684;23.350;2023-02-11T13:33:18;96560.59;;;4.19;42.99
14067;BME280;7108;42.684;23.350;2023-02-11T13:38:33;96551.72;;;4.23;42.76
14067;BME280;7108;42.684;23.350;2023-02-11T13:43:30;96552.03;;;4.40;43.36
14067;BME280;7108;42.684;23.350;2023-02-11T13:46:01;96547.56;;;4.36;42.87
14067;BME280;7108;42.684;23.350;2023-02-11T13:50:59;96540.66;;;4.35;42.30
14067;BME280;7108;42.684;23.350;2023-02-11T13:53:27;96528.88;;;4.36;40.66
14067;BME280;7108;42.684;23.350;2023-02-11T13:56:59;96533.28;;;4.45;40.50
14067;BME280;7108;42.684;23.350;2023-02-11T13:58:50;96527.25;;;4.40;40.52
14067;BME280;7108;42.684;23.350;2023-02-11T14:04:19;96527.91;;;4.08;40.69
14067;BME280;7108;42.684;23.350;2023-02-11T14:07:29;96532.81;;;4.01;40.46
14067;BME280;7108;42.684;23.350;2023-02-11T14:21:19;96519.84;;;4.13;41.04
14067;BME280;7108;42.684;23.350;2023-02-11T14:23:47;96524.50;;;4.03;41.06
14067;BME280;7108;42.684;23.350;2023-02-11T14:28:51;96513.09;;;3.97;42.10
14067;BME280;7108;42.684;23.350;2023-02-11T14:31:36;96517.28;;;4.03;42.01
14067;BME280;7108;42.684;23.350;2023-02-11T14:39:59;96517.22;;;4.08;43.67
14067;BME280;7108;42.684;23.350;2023-02-11T14:42:28;96518.44;;;3.97;43.52
14067;BME280;7108;42.684;23.350;2023-02-11T14:44:57;96511.19;;;4.03;43.80
14067;BME280;7108;42.684;23.350;2023-02-11T14:47:40;96515.50;;;3.99;44.13
14067;BME280;7108;42.684;23.350;2023-02-11T14:50:16;96521.91;;;3.98;43.77
14067;BME280;7108;42.684;23.350;2023-02-11T14:52:43;96507.38;;;3.86;43.67
14067;BME280;7108;42.684;23.350;2023-02-11T14:55:17;96511.13;;;3.85;43.75
14067;BME280;7108;42.684;23.350;2023-02-11T14:58:19;96517.25;;;3.85;44.66
14067;BME280;7108;42.684;23.350;2023-02-11T15:08:27;96506.88;;;3.84;44.80
14067;BME280;7108;42.684;23.350;2023-02-11T15:10:55;96500.22;;;3.81;45.27
14067;BME280;7108;42.684;23.350;2023-02-11T15:13:23;96499.41;;;3.86;45.20
14067;BME280;7108;42.684;23.350;2023-02-11T15:15:54;96498.34;;;3.82;45.37
14067;BME280;7108;42.684;23.350;2023-02-11T15:18:26;96491.28;;;3.72;45.05
14067;BME280;7108;42.684;23.350;2023-02-11T15:20:55;96499.78;;;3.74;45.25
14067;BME280;7108;42.684;23.350;2023-02-11T15:23:24;96492.66;;;3.70;45.98
14067;BME280;7108;42.684;23.350;2023-02-11T15:25:51;96474.59;;;3.62;45.87
14067;BME280;7108;42.684;23.350;2023-02-11T15:28:24;96475.41;;;3.62;45.95
14067;BME280;7108;42.684;23.350;2023-02-11T15:31:20;96484.91;;;3.68;46.79
14067;BME280;7108;42.684;23.350;2023-02-11T15:33:47;96490.28;;;3.63;46.44
14067;BME280;7108;42.684;23.350;2023-02-11T15:36:14;96482.34;;;3.58;46.42
14067;BME280;7108;42.684;23.350;2023-02-11T15:38:40;96480.31;;;3.50;47.17
14067;BME280;7108;42.684;23.350;2023-02-11T15:41:07;96473.81;;;3.38;46.49